CheckWX is a tool to help pilots better visualize weather data.  It is not intended as a substitute for an official pre-flight weather briefing.

22:17:34 UTC

HETR TAF
El Tor Airport
Egypt
TAF HETR 201700Z 2018/2124 32008G20KT CAVOK

Mar-20@
18:00 UTC

Mar-20 @ 18:00 UTC

Mar-22@
00:00 UTC

Mar-22 @ 00:00 UTC

TAF HETR 201700Z 2018/2124 32008G20KT CAVOK
Wind
  • 320° at 8 KTS
  • {Gusting to 20 KTS
Conditions
No significant weather
Cloud Levels
  • No significant clouds